Saint Louis, Oklahoma
Current Conditions -  °F | °C
As of 10:15 AM on Friday 21 Nov 2014 (Local Time) from KSNL Reporting Station
Haze Haze  
Wind Chill: 59°   Ceiling: 400
Heat Index: 59°   Visibility: 4mi
Dew Point: 59°   Wind: 9mph
Humidity: 100%   Direction: 170°S
Pressure: 30.11"   Gusts: NA
Location:  35.07°N, 96.85°W
Report Text: KSNL 211615Z AUTO 17008KT 4SM BR OVC004 15/15 A3011 RMK AO2
Loading
Personal Weather Stations






























Interactive Weather Map New forecast layout! Learn more

10-Day Weather Forecast

Advertisements
Track Severe Weather on mobile